Time;durP1;ratioP1;P1;durP2;ratioP2;P2;SDS_P1;SDS_P2;PMS_P1;PMS_P2;Temp;Humidity;BMP_temperature;BMP_pressure;BME280_temperature;BME280_humidity;BME280_pressure;Samples;Min_cycle;Max_cycle;Signal;HPM_P1;HPM_P2
2021/01/18 00:01:27;;;;;;;61.90;42.15;;;3.20;99.90;;;;;;4975201;28;20223;-73
2021/01/18 00:03:53;;;;;;;67.60;43.50;;;3.30;99.90;;;;;;4975345;28;20188;-72
2021/01/18 00:06:19;;;;;;;87.87;43.47;;;3.30;99.90;;;;;;4974546;28;20180;-72
2021/01/18 00:08:46;;;;;;;81.65;43.45;;;3.30;99.90;;;;;;4974244;28;20220;-72
2021/01/18 00:11:14;;;;;;;62.53;39.95;;;3.30;99.90;;;;;;4974734;28;20176;-72
2021/01/18 00:13:40;;;;;;;61.38;35.35;;;3.40;99.90;;;;;;4975030;28;20657;-72
2021/01/18 00:16:06;;;;;;;61.63;43.00;;;3.40;99.90;;;;;;4974803;28;20207;-73
2021/01/18 00:18:32;;;;;;;68.60;40.63;;;3.40;99.90;;;;;;4974722;28;20259;-72
2021/01/18 00:20:57;;;;;;;61.28;39.67;;;3.40;99.90;;;;;;4975111;28;20176;-72
2021/01/18 00:23:23;;;;;;;61.67;36.67;;;3.50;99.90;;;;;;4975191;28;20176;-72
2021/01/18 00:25:49;;;;;;;59.73;42.83;;;3.50;99.90;;;;;;4974692;28;20539;-73
2021/01/18 00:28:15;;;;;;;55.60;42.67;;;3.50;99.90;;;;;;4973664;28;20624;-73
2021/01/18 00:30:40;;;;;;;68.40;41.63;;;3.50;99.90;;;;;;4975155;28;20439;-73
2021/01/18 00:33:06;;;;;;;61.30;42.17;;;3.50;99.90;;;;;;4975092;28;20254;-72
2021/01/18 00:35:32;;;;;;;69.83;37.33;;;3.50;99.90;;;;;;4974770;28;20196;-73
2021/01/18 00:37:58;;;;;;;53.50;35.77;;;3.50;99.90;;;;;;4974712;28;20192;-73
2021/01/18 00:40:25;;;;;;;56.38;43.30;;;3.60;99.90;;;;;;4974768;28;20609;-72
2021/01/18 00:42:51;;;;;;;63.70;44.95;;;3.60;99.90;;;;;;4974492;28;20184;-72
2021/01/18 00:45:18;;;;;;;52.47;45.95;;;3.60;99.90;;;;;;4974799;28;20620;-72
2021/01/18 00:47:46;;;;;;;60.92;42.83;;;3.60;99.90;;;;;;4974526;28;20176;-73
2021/01/18 00:50:14;;;;;;;68.35;38.97;;;3.60;99.90;;;;;;4974307;28;20218;-72
2021/01/18 00:52:41;;;;;;;53.13;40.63;;;3.60;99.90;;;;;;4974594;28;20532;-73
2021/01/18 00:55:09;;;;;;;55.78;37.33;;;3.60;99.90;;;;;;4974544;28;20600;-72
2021/01/18 00:57:35;;;;;;;49.53;39.35;;;3.60;99.90;;;;;;4974601;28;20176;-72
2021/01/18 01:00:01;;;;;;;47.50;39.03;;;3.60;99.90;;;;;;4974973;28;20594;-72
2021/01/18 01:02:26;;;;;;;54.27;36.93;;;3.60;99.90;;;;;;4974739;28;20181;-72
2021/01/18 01:04:53;;;;;;;56.70;43.00;;;3.60;99.90;;;;;;4974461;28;20252;-73
2021/01/18 01:07:18;;;;;;;39.67;35.65;;;3.60;99.90;;;;;;4974346;28;20176;-72
2021/01/18 01:09:44;;;;;;;52.00;43.40;;;3.60;99.90;;;;;;4974134;28;20288;-72
2021/01/18 01:12:10;;;;;;;49.53;40.33;;;3.60;99.90;;;;;;4974530;28;20271;-72
2021/01/18 01:14:35;;;;;;;48.70;40.77;;;3.70;1.00;;;;;;4974817;28;20208;-72
2021/01/18 01:17:01;;;;;;;48.87;41.00;;;3.70;1.00;;;;;;4974061;28;20574;-72
2021/01/18 01:19:26;;;;;;;50.40;41.20;;;3.70;1.00;;;;;;4976835;28;20706;-72
2021/01/18 01:21:52;;;;;;;59.07;39.50;;;3.70;99.90;;;;;;4977928;28;20176;-72
2021/01/18 01:24:19;;;;;;;57.00;36.60;;;3.70;1.00;;;;;;4978005;28;20212;-72
2021/01/18 01:26:46;;;;;;;53.78;40.60;;;3.70;1.00;;;;;;4977540;28;20219;-72
2021/01/18 01:29:11;;;;;;;55.97;37.13;;;3.70;1.00;;;;;;4978062;28;20658;-72
2021/01/18 01:31:37;;;;;;;54.13;45.17;;;3.70;1.00;;;;;;4977617;28;20251;-72
2021/01/18 01:34:03;;;;;;;64.63;48.00;;;3.70;1.00;;;;;;4977914;28;20211;-72
2021/01/18 01:36:29;;;;;;;84.23;50.03;;;3.60;99.90;;;;;;4976985;28;20581;-72
2021/01/18 01:38:54;;;;;;;74.10;47.23;;;3.60;1.00;;;;;;4976224;28;20671;-72
2021/01/18 01:41:21;;;;;;;66.03;42.53;;;3.60;1.00;;;;;;4977849;28;20649;-72
2021/01/18 01:43:46;;;;;;;64.78;51.65;;;3.60;1.00;;;;;;4977731;28;20180;-73
2021/01/18 01:46:12;;;;;;;63.03;46.80;;;3.50;99.90;;;;;;4977208;28;20180;-72
2021/01/18 01:48:38;;;;;;;71.77;51.73;;;3.50;1.00;;;;;;4977442;28;20527;-73
2021/01/18 01:51:04;;;;;;;70.20;46.90;;;3.50;99.90;;;;;;4976187;28;20514;-72
2021/01/18 01:53:30;;;;;;;81.67;47.80;;;3.50;1.00;;;;;;4977387;28;20428;-72
2021/01/18 01:55:58;;;;;;;69.43;46.65;;;3.50;1.00;;;;;;4977314;28;20172;-72
2021/01/18 01:58:25;;;;;;;51.25;42.58;;;3.50;1.00;;;;;;4977052;28;20681;-72
2021/01/18 02:00:52;;;;;;;59.20;41.90;;;3.50;1.00;;;;;;4977419;28;20251;-72
2021/01/18 02:03:21;;;;;;;53.53;47.78;;;3.50;99.90;;;;;;4977083;28;20169;-72
2021/01/18 02:05:48;;;;;;;60.50;46.55;;;3.50;99.90;;;;;;4976740;28;20582;-73
2021/01/18 02:08:14;;;;;;;59.72;43.47;;;3.50;1.00;;;;;;4977247;28;20180;-72
2021/01/18 02:10:42;;;;;;;45.43;35.70;;;3.50;99.90;;;;;;4977398;28;20200;-72
2021/01/18 02:13:32;;;;;;;53.35;41.00;;;3.50;1.00;;;;;;4977409;28;20176;-72
2021/01/18 02:15:58;;;;;;;49.17;38.08;;;3.60;1.00;;;;;;4975953;28;20216;-72
2021/01/18 02:19:01;;;;;;;51.73;39.27;;;3.60;1.00;;;;;;4977191;28;20180;-72
2021/01/18 02:22:01;;;;;;;53.53;48.20;;;3.60;1.00;;;;;;4977340;28;20180;-72
2021/01/18 02:24:48;;;;;;;57.45;51.50;;;3.60;1.00;;;;;;4976910;28;20231;-72
2021/01/18 02:27:44;;;;;;;45.60;41.10;;;3.60;99.90;;;;;;4976952;28;20165;-72
2021/01/18 02:30:39;;;;;;;44.35;39.13;;;3.60;99.90;;;;;;4976151;28;20602;-72
2021/01/18 02:33:32;;;;;;;52.60;47.15;;;3.70;1.00;;;;;;4976728;28;20177;-72
2021/01/18 02:36:46;;;;;;;46.20;41.00;;;3.70;99.90;;;;;;4975521;28;20275;-73
2021/01/18 02:40:09;;;;;;;55.38;40.47;;;3.70;1.00;;;;;;4974288;28;20212;-72
2021/01/18 02:42:55;;;;;;;62.50;46.78;;;3.70;99.90;;;;;;4974235;28;20216;-72
2021/01/18 02:45:22;;;;;;;48.55;43.42;;;3.70;99.90;;;;;;4958213;28;20188;-72
2021/01/18 02:47:49;;;;;;;72.63;39.75;;;3.70;99.90;;;;;;4975508;28;20200;-73
2021/01/18 02:50:15;;;;;;;44.70;39.40;;;3.70;99.90;;;;;;4975268;28;20283;-72
2021/01/18 02:52:42;;;;;;;62.23;39.70;;;3.70;99.90;;;;;;4976610;28;20263;-72
2021/01/18 02:55:09;;;;;;;55.05;47.33;;;3.80;99.90;;;;;;4976155;28;20470;-72
2021/01/18 02:57:39;;;;;;;55.63;36.47;;;3.80;99.90;;;;;;4975981;28;20172;-73
2021/01/18 03:00:11;;;;;;;53.90;41.58;;;3.80;99.90;;;;;;4975866;28;20597;-73
2021/01/18 03:02:44;;;;;;;47.38;42.25;;;3.90;99.90;;;;;;4976447;28;20180;-72
2021/01/18 03:05:30;;;;;;;56.72;41.40;;;3.90;99.90;;;;;;4976012;28;20593;-73
2021/01/18 03:08:01;;;;;;;47.63;38.33;;;3.90;99.90;;;;;;4976109;28;20189;-72
2021/01/18 03:10:36;;;;;;;54.75;39.47;;;3.90;99.90;;;;;;4975763;28;20192;-72
2021/01/18 03:13:06;;;;;;;45.40;35.92;;;4.00;1.00;;;;;;4976121;28;20187;-73
2021/01/18 03:15:45;;;;;;;41.08;37.03;;;4.00;99.90;;;;;;4974195;28;20618;-73
2021/01/18 03:18:18;;;;;;;50.05;37.67;;;4.00;99.90;;;;;;4975568;28;20178;-73
2021/01/18 03:20:45;;;;;;;53.70;41.95;;;4.00;99.90;;;;;;4975992;28;20670;-73
2021/01/18 03:23:11;;;;;;;59.80;42.65;;;4.00;99.90;;;;;;4975823;28;20188;-72
2021/01/18 03:25:49;;;;;;;55.58;40.50;;;4.00;99.90;;;;;;4975671;28;20177;-73
2021/01/18 03:28:15;;;;;;;55.22;45.80;;;4.00;99.90;;;;;;4975548;28;20177;-73
2021/01/18 03:30:41;;;;;;;52.67;45.63;;;4.00;99.90;;;;;;4975495;28;20267;-73
2021/01/18 03:33:06;;;;;;;61.50;42.87;;;4.00;99.90;;;;;;4975245;28;20211;-72
2021/01/18 03:35:32;;;;;;;68.07;44.93;;;4.00;99.90;;;;;;4975305;28;20227;-73
2021/01/18 03:37:58;;;;;;;50.67;36.77;;;4.00;99.90;;;;;;4975682;28;20271;-73
2021/01/18 03:40:25;;;;;;;69.82;46.38;;;4.00;99.90;;;;;;4975780;28;20192;-73
2021/01/18 03:42:56;;;;;;;59.45;43.42;;;4.00;99.90;;;;;;4975404;28;20176;-73
2021/01/18 03:45:22;;;;;;;59.08;39.70;;;4.00;1.00;;;;;;4975427;28;20172;-73
2021/01/18 03:47:48;;;;;;;68.93;50.80;;;4.00;99.90;;;;;;4975199;28;20185;-73
2021/01/18 03:50:13;;;;;;;60.80;43.47;;;4.00;99.90;;;;;;4975467;28;20279;-73
2021/01/18 03:52:39;;;;;;;58.73;42.70;;;4.10;99.90;;;;;;4974282;28;20706;-72
2021/01/18 03:55:05;;;;;;;58.67;41.70;;;4.10;1.00;;;;;;4975513;28;20222;-73
2021/01/18 03:57:31;;;;;;;63.20;39.83;;;4.00;1.00;;;;;;4973819;28;20176;-73
2021/01/18 03:59:56;;;;;;;57.50;36.87;;;4.00;99.90;;;;;;4974996;28;20204;-73
2021/01/18 04:02:22;;;;;;;62.97;36.33;;;4.00;99.90;;;;;;4975121;28;20173;-73
2021/01/18 04:04:47;;;;;;;43.23;33.87;;;3.90;99.90;;;;;;4975136;28;20215;-73
2021/01/18 04:07:13;;;;;;;52.13;35.60;;;4.00;1.00;;;;;;4974153;28;20173;-72
2021/01/18 04:09:38;;;;;;;55.23;36.50;;;3.90;99.90;;;;;;4974732;28;20192;-72
2021/01/18 04:12:04;;;;;;;53.70;31.40;;;4.00;1.00;;;;;;4974868;28;20181;-72
2021/01/18 04:14:31;;;;;;;44.13;32.10;;;3.90;1.00;;;;;;4974785;28;20663;-73
2021/01/18 04:16:57;;;;;;;57.88;35.88;;;4.00;1.00;;;;;;4974783;28;20181;-72
2021/01/18 04:19:22;;;;;;;53.40;38.30;;;4.00;1.00;;;;;;4974651;28;20323;-72
2021/01/18 04:21:48;;;;;;;53.90;43.23;;;4.10;99.90;;;;;;4975263;28;20203;-72
2021/01/18 04:24:14;;;;;;;52.93;35.13;;;4.10;99.90;;;;;;4975249;28;20575;-73
2021/01/18 04:26:39;;;;;;;44.97;40.00;;;4.10;99.90;;;;;;4974518;28;20196;-73
2021/01/18 04:29:05;;;;;;;53.20;39.57;;;4.10;99.90;;;;;;4974688;28;20235;-73
2021/01/18 04:31:31;;;;;;;59.92;33.67;;;4.10;99.90;;;;;;4975018;28;20537;-73
2021/01/18 04:33:56;;;;;;;42.73;36.37;;;4.10;99.90;;;;;;4974610;28;20200;-72
2021/01/18 04:36:22;;;;;;;40.17;35.90;;;4.10;99.90;;;;;;4989307;28;20223;-73
2021/01/18 04:38:49;;;;;;;42.23;37.90;;;4.10;99.90;;;;;;4975119;28;20192;-72
2021/01/18 04:41:15;;;;;;;37.40;33.50;;;4.10;99.90;;;;;;4974505;28;20165;-73
2021/01/18 04:43:41;;;;;;;39.97;29.73;;;4.00;99.90;;;;;;4974761;28;20184;-73
2021/01/18 04:46:12;;;;;;;38.70;26.27;;;4.00;99.90;;;;;;4974296;28;20180;-73
2021/01/18 04:48:38;;;;;;;38.38;24.65;;;4.00;99.90;;;;;;4974673;28;20224;-73
2021/01/18 04:51:07;;;;;;;43.53;25.23;;;4.00;99.90;;;;;;4975087;28;20578;-72
2021/01/18 04:53:33;;;;;;;42.63;33.47;;;4.00;99.90;;;;;;4975543;28;20180;-73
2021/01/18 04:56:11;;;;;;;38.80;35.05;;;4.00;99.90;;;;;;4978627;28;20586;-73
2021/01/18 04:58:38;;;;;;;45.20;41.75;;;4.00;99.90;;;;;;4978393;28;20641;-73
2021/01/18 05:01:05;;;;;;;35.22;31.42;;;4.00;99.90;;;;;;4978491;28;20499;-72
2021/01/18 05:03:36;;;;;;;28.92;26.23;;;4.00;99.90;;;;;;4977322;28;20176;-72
2021/01/18 05:06:10;;;;;;;31.60;28.17;;;4.00;99.90;;;;;;4978113;28;20308;-73
2021/01/18 05:09:19;;;;;;;26.20;23.95;;;4.00;99.90;;;;;;4976736;28;20290;-73
2021/01/18 05:11:48;;;;;;;32.58;27.10;;;4.00;99.90;;;;;;4977959;28;20647;-73
2021/01/18 05:14:16;;;;;;;35.05;30.40;;;4.00;99.90;;;;;;4978381;28;20215;-73
2021/01/18 05:16:46;;;;;;;33.47;29.27;;;4.00;99.90;;;;;;4977899;28;20161;-73
2021/01/18 05:19:13;;;;;;;30.55;26.95;;;3.90;99.90;;;;;;4977999;28;20246;-73
2021/01/18 05:21:39;;;;;;;40.40;30.83;;;3.90;99.90;;;;;;4978035;28;20180;-73
2021/01/18 05:24:06;;;;;;;31.00;26.70;;;3.90;99.90;;;;;;4978027;28;20177;-73
2021/01/18 05:26:31;;;;;;;37.75;29.50;;;3.90;99.90;;;;;;4977551;28;20179;-73
2021/01/18 05:28:57;;;;;;;33.17;25.77;;;3.90;99.90;;;;;;4992740;28;20200;-73
2021/01/18 05:31:26;;;;;;;33.40;27.73;;;3.90;99.90;;;;;;4977627;28;20164;-72
2021/01/18 05:34:02;;;;;;;38.08;34.30;;;4.00;99.90;;;;;;4977631;28;20675;-73
2021/01/18 05:36:48;;;;;;;40.20;35.95;;;4.00;99.90;;;;;;4977370;28;20215;-73
2021/01/18 05:39:16;;;;;;;35.88;32.35;;;4.00;99.90;;;;;;4977961;28;20717;-73
2021/01/18 05:41:43;;;;;;;32.55;29.23;;;4.00;99.90;;;;;;4977145;28;20176;-73
2021/01/18 05:44:09;;;;;;;36.92;32.90;;;4.00;99.90;;;;;;4977492;28;20518;-73
2021/01/18 05:46:37;;;;;;;31.95;28.60;;;4.00;99.90;;;;;;4977548;28;20294;-73
2021/01/18 05:49:21;;;;;;;34.60;29.90;;;4.00;99.90;;;;;;4977543;28;20243;-73
2021/01/18 05:51:57;;;;;;;32.40;28.23;;;3.90;99.90;;;;;;4977669;28;20173;-73
2021/01/18 05:54:25;;;;;;;34.53;31.55;;;3.90;99.90;;;;;;4977300;28;20251;-73
2021/01/18 05:56:55;;;;;;;35.67;29.60;;;3.90;99.90;;;;;;4977095;28;20255;-73
2021/01/18 05:59:25;;;;;;;37.67;26.58;;;3.90;99.90;;;;;;4977581;28;20538;-73
2021/01/18 06:01:53;;;;;;;29.27;24.83;;;3.90;99.90;;;;;;4977451;28;20169;-73
2021/01/18 06:04:21;;;;;;;28.48;24.27;;;3.90;99.90;;;;;;4977140;28;20188;-73
2021/01/18 06:06:58;;;;;;;34.13;29.35;;;3.90;99.90;;;;;;4975912;28;20177;-73
2021/01/18 06:09:42;;;;;;;35.95;27.08;;;3.90;99.90;;;;;;4976928;28;20192;-73
2021/01/18 06:12:20;;;;;;;36.47;29.35;;;3.90;99.90;;;;;;4977327;28;20181;-73
2021/01/18 06:15:11;;;;;;;27.65;24.83;;;3.90;99.90;;;;;;4976566;28;20200;-73
2021/01/18 06:17:42;;;;;;;31.45;28.67;;;4.00;99.90;;;;;;4976811;28;20168;-72
2021/01/18 06:20:08;;;;;;;36.08;28.15;;;4.00;99.90;;;;;;4976987;28;20639;-73
2021/01/18 06:22:34;;;;;;;42.38;31.98;;;4.00;99.90;;;;;;4976981;28;20649;-73
2021/01/18 06:25:33;;;;;;;37.97;32.17;;;4.00;99.90;;;;;;4976973;28;20267;-73
2021/01/18 06:27:59;;;;;;;40.95;32.33;;;4.10;99.90;;;;;;4976552;28;20415;-73
2021/01/18 06:30:30;;;;;;;48.77;27.83;;;4.10;99.90;;;;;;4975891;28;20205;-73
2021/01/18 06:33:00;;;;;;;38.70;32.45;;;4.10;99.90;;;;;;4976326;28;20256;-73
2021/01/18 06:35:32;;;;;;;38.28;33.65;;;4.10;99.90;;;;;;4976368;28;20577;-73
2021/01/18 06:38:01;;;;;;;33.47;30.33;;;4.10;99.90;;;;;;4975418;28;20197;-73
2021/01/18 06:40:32;;;;;;;31.52;28.48;;;4.00;99.90;;;;;;4975158;28;20247;-73
2021/01/18 06:42:58;;;;;;;42.03;34.88;;;4.10;99.90;;;;;;4976199;28;20173;-73
2021/01/18 06:45:30;;;;;;;32.17;28.83;;;4.10;99.90;;;;;;4975278;28;20189;-73
2021/01/18 06:47:58;;;;;;;31.25;28.13;;;4.10;99.90;;;;;;4974963;28;20171;-73
2021/01/18 06:50:28;;;;;;;30.10;26.52;;;4.10;99.90;;;;;;4974829;28;20200;-73
2021/01/18 06:52:55;;;;;;;31.30;28.25;;;4.20;99.90;;;;;;4976634;28;20173;-73
2021/01/18 06:55:30;;;;;;;36.53;29.77;;;4.20;99.90;;;;;;4976168;28;20350;-73
2021/01/18 06:58:16;;;;;;;41.78;37.63;;;4.10;99.90;;;;;;4976310;28;20171;-73
2021/01/18 07:00:46;;;;;;;35.05;31.85;;;4.10;99.90;;;;;;4975693;28;20275;-73
2021/01/18 07:03:30;;;;;;;34.35;31.27;;;4.20;1.00;;;;;;4976457;28;20185;-72
2021/01/18 07:05:58;;;;;;;33.85;30.90;;;4.20;99.90;;;;;;4975931;28;20251;-73
2021/01/18 07:08:33;;;;;;;33.67;30.33;;;4.10;99.90;;;;;;4976142;28;20188;-73
2021/01/18 07:11:09;;;;;;;34.97;31.08;;;4.10;1.00;;;;;;4976192;28;20164;-73
2021/01/18 07:13:36;;;;;;;36.15;33.00;;;4.20;1.00;;;;;;4985401;28;20226;-73
2021/01/18 07:16:07;;;;;;;38.92;35.67;;;4.10;1.00;;;;;;4984329;28;20199;-73
2021/01/18 07:18:37;;;;;;;35.13;29.83;;;4.10;1.00;;;;;;4983381;28;20199;-73
2021/01/18 07:21:03;;;;;;;37.70;28.30;;;4.10;1.00;;;;;;4983340;28;20168;-73
2021/01/18 07:23:30;;;;;;;38.08;34.40;;;4.10;1.00;;;;;;4980826;28;20181;-73
2021/01/18 07:26:30;;;;;;;47.75;42.88;;;4.10;1.00;;;;;;4982879;28;20181;-72
2021/01/18 07:29:04;;;;;;;38.85;35.33;;;4.10;1.00;;;;;;4984671;28;20692;-73
2021/01/18 07:31:30;;;;;;;35.45;32.33;;;4.10;1.00;;;;;;4983207;28;20290;-73
2021/01/18 07:33:56;;;;;;;39.33;36.00;;;4.10;1.00;;;;;;4982834;28;20168;-73
2021/01/18 07:36:30;;;;;;;45.30;40.90;;;4.20;99.90;;;;;;4984541;28;20608;-73
2021/01/18 07:38:57;;;;;;;38.00;34.22;;;4.20;1.00;;;;;;4984022;28;20424;-73
2021/01/18 07:41:36;;;;;;;41.20;36.97;;;4.20;1.00;;;;;;4984541;28;20658;-72
2021/01/18 07:44:04;;;;;;;42.40;37.85;;;4.20;99.90;;;;;;4986396;28;20160;-72
2021/01/18 07:46:29;;;;;;;46.97;39.40;;;4.20;1.00;;;;;;4985931;28;20196;-73
2021/01/18 07:49:19;;;;;;;38.87;34.87;;;4.20;1.00;;;;;;4986127;28;20566;-72
2021/01/18 07:51:45;;;;;;;45.20;39.50;;;4.20;1.00;;;;;;4982739;28;20204;-72
2021/01/18 07:54:31;;;;;;;47.63;42.93;;;4.20;1.00;;;;;;4984244;28;20274;-73
2021/01/18 07:57:23;;;;;;;46.45;41.35;;;4.30;1.00;;;;;;4986105;28;20175;-72
2021/01/18 07:59:49;;;;;;;47.15;42.80;;;4.30;1.00;;;;;;4985312;28;20655;-72
2021/01/18 08:02:24;;;;;;;45.77;39.53;;;4.30;1.00;;;;;;4981430;28;20168;-73
2021/01/18 08:04:50;;;;;;;42.22;37.45;;;4.30;99.90;;;;;;4983779;28;20228;-73
2021/01/18 08:07:15;;;;;;;43.53;39.13;;;4.30;99.90;;;;;;4987791;28;20734;-73
2021/01/18 08:09:41;;;;;;;45.63;38.77;;;4.30;99.90;;;;;;4975487;28;20568;-72
2021/01/18 08:12:33;;;;;;;58.27;41.10;;;4.30;99.90;;;;;;4973188;28;20651;-72
2021/01/18 08:15:07;;;;;;;48.88;38.08;;;4.30;99.90;;;;;;4972996;28;20463;-72
2021/01/18 08:17:33;;;;;;;47.20;42.55;;;4.30;99.90;;;;;;4972793;28;20177;-73
2021/01/18 08:20:09;;;;;;;47.10;42.90;;;4.20;99.90;;;;;;4972725;28;20216;-72
2021/01/18 08:22:36;;;;;;;43.25;38.63;;;4.30;99.90;;;;;;4972921;28;20168;-73
2021/01/18 08:25:03;;;;;;;40.08;36.47;;;4.30;99.90;;;;;;4972840;28;20225;-73
2021/01/18 08:27:55;;;;;;;40.97;37.05;;;4.30;99.90;;;;;;4971508;28;20176;-72
2021/01/18 08:30:37;;;;;;;41.17;35.90;;;4.30;99.90;;;;;;4975006;28;20214;-72
2021/01/18 08:33:18;;;;;;;43.13;38.67;;;4.40;99.90;;;;;;4976706;28;20250;-73
2021/01/18 08:35:49;;;;;;;59.35;33.75;;;4.40;99.90;;;;;;4975241;28;20239;-73
2021/01/18 08:38:29;;;;;;;45.80;35.67;;;4.40;99.90;;;;;;4976632;28;20191;-73
2021/01/18 08:41:09;;;;;;;54.88;40.13;;;4.40;99.90;;;;;;4976982;28;20176;-73
2021/01/18 08:43:50;;;;;;;43.72;37.47;;;4.50;99.90;;;;;;4977231;28;20172;-73
2021/01/18 08:46:32;;;;;;;50.10;45.67;;;4.50;99.90;;;;;;4974810;28;20234;-73
2021/01/18 08:49:20;;;;;;;47.90;42.85;;;4.50;99.90;;;;;;4974762;28;20288;-73
2021/01/18 08:51:50;;;;;;;48.80;43.78;;;4.60;99.90;;;;;;4975752;28;20669;-73
2021/01/18 08:54:36;;;;;;;44.75;38.40;;;4.50;99.90;;;;;;4975482;28;20200;-74
2021/01/18 08:57:24;;;;;;;50.15;42.63;;;4.50;99.90;;;;;;4976806;28;20161;-71
2021/01/18 09:00:10;;;;;;;45.60;40.95;;;4.50;99.90;;;;;;4976095;28;20202;-71
2021/01/18 09:02:39;;;;;;;47.83;43.22;;;4.50;99.90;;;;;;4976133;28;20251;-71
2021/01/18 09:05:14;;;;;;;48.63;39.90;;;4.50;99.90;;;;;;4975821;28;20215;-71
2021/01/18 09:07:43;;;;;;;45.38;40.45;;;4.60;99.90;;;;;;4975658;28;20176;-71
2021/01/18 09:10:21;;;;;;;46.50;41.90;;;4.60;99.90;;;;;;4975615;28;20562;-71
2021/01/18 09:12:49;;;;;;;56.53;43.00;;;4.60;99.90;;;;;;4975863;28;20184;-71
2021/01/18 09:15:17;;;;;;;52.10;40.15;;;4.70;99.90;;;;;;4975476;28;20247;-72
2021/01/18 09:17:43;;;;;;;42.38;37.78;;;4.70;99.90;;;;;;4975483;28;20169;-71
2021/01/18 09:20:11;;;;;;;49.17;44.40;;;4.70;99.90;;;;;;4974265;28;20229;-71
2021/01/18 09:22:42;;;;;;;47.42;37.63;;;4.70;99.90;;;;;;4975678;28;20168;-71
2021/01/18 09:25:10;;;;;;;42.60;36.85;;;4.80;99.90;;;;;;4992100;28;20192;-71
2021/01/18 09:27:37;;;;;;;46.80;41.67;;;4.80;99.90;;;;;;4993228;28;20176;-71
2021/01/18 09:30:08;;;;;;;41.03;36.83;;;4.80;99.90;;;;;;4991980;28;20200;-71
2021/01/18 09:32:38;;;;;;;43.33;38.55;;;4.80;99.90;;;;;;5006268;28;20730;-71
2021/01/18 09:35:07;;;;;;;54.38;36.97;;;4.80;99.60;;;;;;4972679;28;20215;-71
2021/01/18 09:37:32;;;;;;;40.53;35.70;;;4.80;99.90;;;;;;4974653;28;20191;-71
2021/01/18 09:40:03;;;;;;;49.27;37.17;;;4.80;99.90;;;;;;4974874;28;20193;-71
2021/01/18 09:42:31;;;;;;;50.90;41.15;;;4.80;99.90;;;;;;4975276;28;20173;-71
2021/01/18 09:44:57;;;;;;;48.20;37.92;;;4.80;99.90;;;;;;4973821;28;20192;-71
2021/01/18 09:47:24;;;;;;;53.35;36.83;;;4.80;99.90;;;;;;4975029;28;20176;-71
2021/01/18 09:49:50;;;;;;;43.88;35.63;;;4.90;99.90;;;;;;4974925;28;20239;-71
2021/01/18 09:52:15;;;;;;;51.93;39.10;;;4.90;99.90;;;;;;4975071;28;20181;-71
2021/01/18 09:54:46;;;;;;;59.23;35.27;;;4.90;99.90;;;;;;4975342;28;20212;-72
2021/01/18 09:57:15;;;;;;;42.22;35.42;;;4.90;99.90;;;;;;4975412;28;20164;-72
2021/01/18 09:59:42;;;;;;;41.90;36.80;;;5.00;99.90;;;;;;4975829;28;20189;-72
2021/01/18 10:02:12;;;;;;;54.67;36.80;;;5.00;99.90;;;;;;4975857;28;20177;-73
2021/01/18 10:04:39;;;;;;;55.83;42.22;;;5.00;99.90;;;;;;4975888;28;20184;-72
2021/01/18 10:07:08;;;;;;;48.60;43.30;;;5.00;99.90;;;;;;4975616;28;20173;-73
2021/01/18 10:09:34;;;;;;;42.03;36.28;;;5.10;99.90;;;;;;4975666;28;20208;-73
2021/01/18 10:12:02;;;;;;;61.38;53.50;;;5.10;99.90;;;;;;4975443;28;20208;-73
2021/01/18 10:14:28;;;;;;;52.83;38.03;;;5.20;99.90;;;;;;4975412;28;20560;-73
2021/01/18 10:17:05;;;;;;;62.65;41.38;;;5.20;99.90;;;;;;4975441;28;20247;-72
2021/01/18 10:19:33;;;;;;;54.42;36.95;;;5.20;99.90;;;;;;4975375;28;20208;-74
2021/01/18 10:22:01;;;;;;;41.03;32.75;;;5.20;99.90;;;;;;4992508;28;20585;-74
2021/01/18 10:24:35;;;;;;;43.67;38.38;;;5.30;99.90;;;;;;4994892;28;20180;-73
2021/01/18 10:27:04;;;;;;;45.28;38.08;;;5.30;99.90;;;;;;4992416;28;20172;-74
2021/01/18 10:29:30;;;;;;;56.95;45.83;;;5.30;99.90;;;;;;4993457;28;20210;-74
2021/01/18 10:31:57;;;;;;;49.63;40.28;;;5.40;99.90;;;;;;4980449;28;20630;-74
2021/01/18 10:34:22;;;;;;;54.78;40.88;;;5.40;99.90;;;;;;4973748;28;20709;-74
2021/01/18 10:36:52;;;;;;;48.90;43.63;;;5.40;99.90;;;;;;4980762;28;20183;-73
2021/01/18 10:39:30;;;;;;;45.33;36.72;;;5.40;99.90;;;;;;4994113;28;20188;-73
2021/01/18 10:42:16;;;;;;;56.83;34.25;;;5.40;99.90;;;;;;4993443;28;20215;-72
2021/01/18 10:44:50;;;;;;;51.22;39.33;;;5.40;99.90;;;;;;4994524;28;20263;-74
2021/01/18 10:47:18;;;;;;;51.08;45.83;;;5.40;99.90;;;;;;4988545;28;20561;-73
2021/01/18 10:50:00;;;;;;;46.85;42.38;;;5.40;94.10;;;;;;4978712;28;20195;-74
2021/01/18 10:52:39;;;;;;;47.22;42.42;;;5.40;99.90;;;;;;4978947;28;20195;-73
2021/01/18 10:55:06;;;;;;;62.95;40.15;;;5.40;86.60;;;;;;4974868;28;20223;-74
2021/01/18 10:57:38;;;;;;;46.05;41.45;;;5.30;97.30;;;;;;4975248;28;20181;-73
2021/01/18 11:00:20;;;;;;;53.65;48.03;;;5.40;99.90;;;;;;4976991;28;20203;-73
2021/01/18 11:02:54;;;;;;;52.33;44.42;;;5.30;96.90;;;;;;4980727;28;20227;-73
2021/01/18 11:05:31;;;;;;;46.58;40.35;;;5.30;90.80;;;;;;4985601;28;20187;-72
2021/01/18 11:07:59;;;;;;;52.65;42.88;;;5.40;99.90;;;;;;4994235;28;20709;-73
2021/01/18 11:10:26;;;;;;;54.50;40.00;;;5.40;99.90;;;;;;5153360;23;20704;-75
2021/01/18 11:13:12;;;;;;;45.60;36.58;;;5.40;99.90;;;;;;5028822;28;20170;-74
2021/01/18 11:15:41;;;;;;;50.80;38.17;;;5.40;99.90;;;;;;5024835;28;20544;-74
2021/01/18 11:18:08;;;;;;;48.15;41.15;;;5.40;99.90;;;;;;5025943;28;20657;-75
2021/01/18 11:20:35;;;;;;;48.30;38.70;;;5.50;99.90;;;;;;4995275;28;20666;-75
2021/01/18 11:23:00;;;;;;;49.97;45.58;;;5.50;99.90;;;;;;5002891;28;20187;-75
2021/01/18 11:25:27;;;;;;;51.27;46.03;;;5.50;99.90;;;;;;5010812;28;20179;-74
2021/01/18 11:27:53;;;;;;;51.53;45.47;;;5.50;99.90;;;;;;5012480;28;20213;-74
2021/01/18 11:30:19;;;;;;;43.33;39.03;;;5.50;99.90;;;;;;5012325;28;20345;-75
2021/01/18 11:32:45;;;;;;;44.90;40.20;;;5.60;99.90;;;;;;5002630;28;20737;-73
2021/01/18 11:35:13;;;;;;;42.70;38.67;;;5.60;99.90;;;;;;5000414;28;20455;-73
2021/01/18 11:37:39;;;;;;;46.40;41.65;;;5.70;99.90;;;;;;4991172;28;20211;-73
2021/01/18 11:40:07;;;;;;;46.92;42.92;;;5.70;99.90;;;;;;4992423;28;20215;-73
2021/01/18 11:42:33;;;;;;;44.38;40.63;;;5.60;99.90;;;;;;4991807;28;20169;-73
2021/01/18 11:45:00;;;;;;;43.63;37.47;;;5.70;99.90;;;;;;4989694;28;20992;-73
2021/01/18 11:47:33;;;;;;;46.95;42.45;;;5.70;99.90;;;;;;4992142;28;20494;-73
2021/01/18 11:49:58;;;;;;;49.10;44.70;;;5.70;99.90;;;;;;4992345;28;20219;-73
2021/01/18 11:52:24;;;;;;;43.93;40.23;;;5.70;99.90;;;;;;4992155;28;20278;-73
2021/01/18 11:54:49;;;;;;;40.47;36.70;;;5.70;99.90;;;;;;4990797;28;20211;-73
2021/01/18 11:57:15;;;;;;;36.07;32.13;;;5.70;99.90;;;;;;4991591;28;20274;-73
2021/01/18 11:59:40;;;;;;;46.37;42.67;;;5.70;99.90;;;;;;4991989;28;20196;-73
2021/01/18 12:02:06;;;;;;;47.63;32.60;;;5.70;99.90;;;;;;4992113;28;20187;-73
2021/01/18 12:04:32;;;;;;;38.63;33.47;;;5.80;99.90;;;;;;4992272;28;20188;-73
2021/01/18 12:06:58;;;;;;;37.30;34.08;;;5.70;99.90;;;;;;4991915;28;20182;-73
2021/01/18 12:09:23;;;;;;;37.57;32.70;;;5.70;99.90;;;;;;4991858;28;20294;-73
2021/01/18 12:11:49;;;;;;;39.63;32.13;;;5.80;99.90;;;;;;4992056;28;20551;-73
2021/01/18 12:14:15;;;;;;;37.73;34.43;;;5.70;99.90;;;;;;4991922;28;20238;-73
2021/01/18 12:16:40;;;;;;;36.87;33.20;;;5.70;99.90;;;;;;4990637;28;20566;-73
2021/01/18 12:19:06;;;;;;;47.80;34.73;;;5.70;99.90;;;;;;4992019;28;20188;-73
2021/01/18 12:21:40;;;;;;;41.23;37.33;;;5.70;99.90;;;;;;4990659;28;20226;-73
2021/01/18 12:24:06;;;;;;;35.70;32.70;;;5.70;99.90;;;;;;4991957;28;20526;-73
2021/01/18 12:26:31;;;;;;;38.50;34.63;;;5.70;99.90;;;;;;4991766;28;20204;-73
2021/01/18 12:28:57;;;;;;;36.90;33.47;;;5.80;99.90;;;;;;4991955;28;20234;-73
2021/01/18 12:31:23;;;;;;;37.93;34.13;;;5.80;99.90;;;;;;4991778;28;20168;-73
2021/01/18 12:33:49;;;;;;;36.97;33.15;;;5.80;99.90;;;;;;4990624;28;20184;-72
2021/01/18 12:36:15;;;;;;;39.63;35.33;;;5.80;99.90;;;;;;4991503;28;20218;-73
2021/01/18 12:38:40;;;;;;;42.80;33.43;;;5.80;99.90;;;;;;4990271;28;20653;-73
2021/01/18 12:41:06;;;;;;;35.03;31.33;;;5.80;99.90;;;;;;4988550;28;20262;-73
2021/01/18 12:43:32;;;;;;;38.27;34.77;;;5.80;99.90;;;;;;4991796;28;20175;-72
2021/01/18 12:46:00;;;;;;;41.83;38.10;;;5.90;99.90;;;;;;4990189;28;20274;-72
2021/01/18 12:48:26;;;;;;;40.67;36.63;;;5.90;99.90;;;;;;4991139;28;20172;-72
2021/01/18 12:50:52;;;;;;;34.08;30.52;;;5.90;99.90;;;;;;4991676;28;20176;-72
2021/01/18 12:56:02;;;;;;;34.92;31.70;;;5.80;99.90;;;;;;4991048;28;20760;-72
2021/01/18 12:58:28;;;;;;;34.97;31.25;;;5.80;99.90;;;;;;4991440;28;20718;-73